Time;durP1;ratioP1;P1;durP2;ratioP2;P2;SDS_P1;SDS_P2;PMS_P1;PMS_P2;Temp;Humidity;BMP_temperature;BMP_pressure;BME280_temperature;BME280_humidity;BME280_pressure;Samples;Min_cycle;Max_cycle;Signal;HPM_P1;HPM_P2
2023/08/30 00:00:55;;;;;;;7.27;6.67;;;;;;;;;;5075917;28;20522;-62
2023/08/30 00:03:22;;;;;;;7.50;6.23;;;;;;;;;;5075080;28;20436;-62
2023/08/30 00:05:51;;;;;;;7.93;6.80;;;;;;;;;;5075396;28;20491;-62
2023/08/30 00:08:19;;;;;;;7.53;6.80;;;;;;;;;;5074920;28;20533;-62
2023/08/30 00:10:46;;;;;;;7.83;6.87;;;;;;;;;;5074984;28;20445;-62
2023/08/30 00:13:13;;;;;;;8.10;7.30;;;;;;;;;;5075006;28;20523;-62
2023/08/30 00:15:41;;;;;;;7.33;6.73;;;;;;;;;;5075293;28;20864;-62
2023/08/30 00:18:08;;;;;;;10.67;7.53;;;;;;;;;;5074861;28;20440;-62
2023/08/30 00:20:35;;;;;;;7.13;6.53;;;;;;;;;;5074913;28;20447;-61
2023/08/30 00:23:04;;;;;;;7.43;6.80;;;;;;;;;;5074780;28;20534;-61
2023/08/30 00:25:31;;;;;;;7.13;6.40;;;;;;;;;;5074715;28;22942;-61
2023/08/30 00:27:59;;;;;;;7.70;7.10;;;;;;;;;;5074887;28;20527;-62
2023/08/30 00:30:26;;;;;;;7.30;6.60;;;;;;;;;;5075366;28;20530;-62
2023/08/30 00:32:54;;;;;;;9.87;6.90;;;;;;;;;;5074858;28;20431;-62
2023/08/30 00:35:21;;;;;;;8.40;7.50;;;;;;;;;;5074885;28;20449;-62
2023/08/30 00:37:48;;;;;;;8.00;7.30;;;;;;;;;;5074757;28;20443;-62
2023/08/30 00:40:17;;;;;;;8.03;7.23;;;;;;;;;;5074814;28;20449;-62
2023/08/30 00:42:44;;;;;;;8.20;7.40;;;;;;;;;;5074903;28;20496;-62
2023/08/30 00:45:11;;;;;;;7.50;6.90;;;;;;;;;;5074599;28;20448;-61
2023/08/30 00:47:39;;;;;;;11.90;8.20;;;;;;;;;;5074208;28;20507;-61
2023/08/30 00:50:06;;;;;;;8.60;7.67;;;;;;;;;;5074619;28;20439;-61
2023/08/30 00:52:34;;;;;;;8.37;7.60;;;;;;;;;;5074119;28;20530;-62
2023/08/30 00:55:01;;;;;;;9.57;7.70;;;;;;;;;;5074500;28;20788;-62
2023/08/30 00:57:30;;;;;;;8.90;7.33;;;;;;;;;;5073890;28;20541;-62
2023/08/30 00:59:57;;;;;;;9.07;7.10;;;;;;;;;;5074700;28;20444;-62
2023/08/30 01:02:25;;;;;;;9.20;8.30;;;;;;;;;;5074406;28;20530;-62
2023/08/30 01:04:52;;;;;;;9.00;8.20;;;;;;;;;;5074231;28;20464;-62
2023/08/30 01:07:19;;;;;;;8.23;7.50;;;;;;;;;;5074027;28;20567;-62
2023/08/30 01:09:47;;;;;;;7.83;7.13;;;;;;;;;;5074096;28;20440;-62
2023/08/30 01:12:16;;;;;;;8.27;7.47;;;;;;;;;;5073653;28;20956;-61
2023/08/30 01:14:46;;;;;;;8.40;7.60;;;;;;;;;;5074052;28;20530;-62
2023/08/30 01:17:15;;;;;;;8.63;7.73;;;;;;;;;;5074103;28;20471;-61
2023/08/30 01:19:48;;;;;;;9.20;8.30;;;;;;;;;;5073978;28;20446;-61
2023/08/30 01:22:18;;;;;;;8.33;7.67;;;;;;;;;;5073756;28;20558;-61
2023/08/30 01:24:50;;;;;;;8.53;7.83;;;;;;;;;;5073602;28;20441;-62
2023/08/30 01:27:19;;;;;;;8.07;7.37;;;;;;;;;;5074002;28;20467;-62
2023/08/30 01:29:47;;;;;;;8.80;8.00;;;;;;;;;;5073678;28;20526;-61
2023/08/30 01:32:14;;;;;;;10.70;9.70;;;;;;;;;;5073859;28;20444;-61
2023/08/30 01:34:43;;;;;;;8.73;7.93;;;;;;;;;;5073251;28;20538;-62
2023/08/30 01:37:10;;;;;;;9.03;8.13;;;;;;;;;;5073360;28;20447;-62
2023/08/30 01:39:38;;;;;;;9.53;8.60;;;;;;;;;;5073594;28;20478;-61
2023/08/30 01:42:06;;;;;;;9.00;8.23;;;;;;;;;;5073604;28;20872;-61
2023/08/30 01:44:35;;;;;;;9.80;8.80;;;;;;;;;;5073085;28;20966;-62
2023/08/30 01:47:03;;;;;;;9.20;8.40;;;;;;;;;;5073461;28;20927;-62
2023/08/30 01:49:32;;;;;;;10.67;9.77;;;;;;;;;;5073397;28;20443;-62
2023/08/30 01:51:59;;;;;;;11.67;8.87;;;;;;;;;;5073389;28;20450;-61
2023/08/30 01:54:27;;;;;;;10.77;8.57;;;;;;;;;;5073051;28;20830;-62
2023/08/30 01:56:54;;;;;;;9.53;8.63;;;;;;;;;;5073330;28;20530;-62
2023/08/30 01:59:21;;;;;;;12.17;8.90;;;;;;;;;;5073004;28;20922;-62
2023/08/30 02:01:50;;;;;;;10.23;9.40;;;;;;;;;;5073628;28;20434;-62
2023/08/30 02:04:17;;;;;;;10.87;9.33;;;;;;;;;;5073211;28;20445;-62
2023/08/30 02:06:50;;;;;;;10.50;9.43;;;;;;;;;;5072939;28;20485;-62
2023/08/30 02:09:20;;;;;;;10.70;9.70;;;;;;;;;;5072631;28;20519;-62
2023/08/30 02:11:47;;;;;;;11.10;10.00;;;;;;;;;;5073015;28;20427;-62
2023/08/30 02:14:17;;;;;;;11.43;10.43;;;;;;;;;;5073191;28;20961;-62
2023/08/30 02:16:45;;;;;;;12.13;10.90;;;;;;;;;;5073057;28;20474;-62
2023/08/30 02:19:16;;;;;;;12.90;10.33;;;;;;;;;;5073159;28;20455;-61
2023/08/30 02:21:44;;;;;;;12.20;11.20;;;;;;;;;;5073061;28;20781;-62
2023/08/30 02:24:11;;;;;;;13.17;11.87;;;;;;;;;;5073324;28;20488;-63
2023/08/30 02:26:38;;;;;;;11.97;10.77;;;;;;;;;;5073249;28;20469;-63
2023/08/30 02:29:06;;;;;;;14.17;11.83;;;;;;;;;;5072897;28;20490;-62
2023/08/30 02:31:33;;;;;;;13.60;12.20;;;;;;;;;;5072855;28;20524;-62
2023/08/30 02:34:01;;;;;;;16.73;12.60;;;;;;;;;;5072389;28;20928;-62
2023/08/30 02:36:30;;;;;;;14.53;12.40;;;;;;;;;;5072561;28;20950;-62
2023/08/30 02:38:57;;;;;;;16.00;13.13;;;;;;;;;;5072787;28;20531;-62
2023/08/30 02:41:24;;;;;;;14.63;13.13;;;;;;;;;;5072783;28;20446;-62
2023/08/30 02:43:51;;;;;;;16.50;14.90;;;;;;;;;;5072447;28;20446;-62
2023/08/30 02:46:19;;;;;;;14.53;13.13;;;;;;;;;;5072372;28;20480;-62
2023/08/30 02:48:46;;;;;;;17.50;14.03;;;;;;;;;;5072943;28;20450;-62
2023/08/30 02:51:13;;;;;;;16.10;14.40;;;;;;;;;;5072728;28;20800;-62
2023/08/30 02:53:42;;;;;;;16.30;14.13;;;;;;;;;;5072707;28;20502;-62
2023/08/30 02:56:11;;;;;;;22.03;14.10;;;;;;;;;;5072780;28;20474;-62
2023/08/30 02:58:38;;;;;;;16.50;14.93;;;;;;;;;;5072828;28;20446;-62
2023/08/30 03:01:05;;;;;;;17.47;13.57;;;;;;;;;;5072640;28;20435;-62
2023/08/30 03:03:32;;;;;;;17.57;15.60;;;;;;;;;;5072681;28;20499;-62
2023/08/30 03:05:59;;;;;;;16.40;14.17;;;;;;;;;;5072213;28;20435;-62
2023/08/30 03:08:28;;;;;;;14.90;13.40;;;;;;;;;;5072564;28;20503;-62
2023/08/30 03:10:56;;;;;;;16.00;14.40;;;;;;;;;;5072423;28;20529;-63
2023/08/30 03:13:23;;;;;;;21.67;14.33;;;;;;;;;;5072327;28;20962;-62
2023/08/30 03:15:51;;;;;;;16.83;13.73;;;;;;;;;;5072458;28;20525;-62
2023/08/30 03:18:18;;;;;;;16.77;14.90;;;;;;;;;;5072452;28;20448;-62
2023/08/30 03:20:45;;;;;;;16.80;15.13;;;;;;;;;;5075648;28;20438;-62
2023/08/30 03:23:12;;;;;;;16.50;14.70;;;;;;;;;;5076288;28;20450;-62
2023/08/30 03:25:39;;;;;;;17.73;15.83;;;;;;;;;;5075643;28;21022;-62
2023/08/30 03:28:08;;;;;;;16.67;14.97;;;;;;;;;;5095042;28;20831;-62
2023/08/30 03:30:35;;;;;;;17.40;14.90;;;;;;;;;;5095781;28;20460;-62
2023/08/30 03:33:02;;;;;;;16.20;14.60;;;;;;;;;;5095869;28;20717;-62
2023/08/30 03:35:30;;;;;;;17.17;15.37;;;;;;;;;;5096053;28;20444;-62
2023/08/30 03:37:57;;;;;;;17.20;15.17;;;;;;;;;;5095922;28;20805;-62
2023/08/30 03:40:24;;;;;;;18.07;16.20;;;;;;;;;;5095635;28;20809;-62
2023/08/30 03:42:51;;;;;;;17.80;16.00;;;;;;;;;;5096041;28;20444;-62
2023/08/30 03:45:20;;;;;;;17.20;14.70;;;;;;;;;;5095502;28;20448;-62
2023/08/30 03:47:47;;;;;;;17.43;15.63;;;;;;;;;;5095784;28;20477;-62
2023/08/30 03:50:14;;;;;;;18.90;17.10;;;;;;;;;;5095309;28;20454;-62
2023/08/30 03:52:41;;;;;;;19.40;16.97;;;;;;;;;;5095395;28;20444;-62
2023/08/30 03:55:09;;;;;;;17.60;15.77;;;;;;;;;;5096260;28;20443;-62
2023/08/30 03:57:36;;;;;;;18.00;15.60;;;;;;;;;;5091870;28;20873;-62
2023/08/30 04:00:03;;;;;;;20.03;17.93;;;;;;;;;;5095499;28;20935;-62
2023/08/30 04:02:32;;;;;;;19.40;16.17;;;;;;;;;;5095592;28;20444;-62
2023/08/30 04:04:59;;;;;;;17.10;15.30;;;;;;;;;;5095237;28;20921;-62
2023/08/30 04:07:26;;;;;;;21.87;16.53;;;;;;;;;;5095176;28;20530;-62
2023/08/30 04:09:53;;;;;;;19.23;17.30;;;;;;;;;;5095168;28;20449;-62
2023/08/30 04:12:21;;;;;;;19.03;17.00;;;;;;;;;;5095484;28;20448;-62
2023/08/30 04:14:48;;;;;;;17.80;15.93;;;;;;;;;;5094823;28;20524;-62
2023/08/30 04:17:15;;;;;;;19.57;17.57;;;;;;;;;;5094930;28;20922;-62
2023/08/30 04:19:43;;;;;;;21.23;17.90;;;;;;;;;;5094890;28;20925;-62
2023/08/30 04:22:11;;;;;;;19.87;16.27;;;;;;;;;;5095048;28;20446;-62
2023/08/30 04:24:38;;;;;;;19.27;17.20;;;;;;;;;;5095204;28;20433;-62
2023/08/30 04:27:05;;;;;;;19.03;17.10;;;;;;;;;;5094449;28;20477;-62
2023/08/30 04:29:32;;;;;;;18.17;16.37;;;;;;;;;;5095199;28;20935;-62
2023/08/30 04:32:00;;;;;;;19.90;16.67;;;;;;;;;;5094147;28;20803;-62
2023/08/30 04:34:29;;;;;;;20.70;18.47;;;;;;;;;;5094969;28;20449;-62
2023/08/30 04:36:57;;;;;;;22.73;18.17;;;;;;;;;;5094504;28;20918;-62
2023/08/30 04:39:24;;;;;;;20.57;18.03;;;;;;;;;;5094547;28;20457;-62
2023/08/30 04:41:52;;;;;;;20.90;18.00;;;;;;;;;;5094725;28;20517;-61
2023/08/30 04:44:24;;;;;;;18.67;16.53;;;;;;;;;;5094728;28;20454;-61
2023/08/30 04:46:52;;;;;;;21.27;19.07;;;;;;;;;;5094730;28;20444;-61
2023/08/30 04:49:19;;;;;;;21.10;18.87;;;;;;;;;;5093886;28;20505;-62
2023/08/30 04:51:46;;;;;;;19.07;17.17;;;;;;;;;;5094051;28;20533;-62
2023/08/30 04:54:15;;;;;;;20.87;17.63;;;;;;;;;;5094487;28;21036;-62
2023/08/30 04:56:42;;;;;;;24.90;19.40;;;;;;;;;;5094127;28;20480;-62
2023/08/30 04:59:09;;;;;;;21.80;19.17;;;;;;;;;;5093741;28;20434;-62
2023/08/30 05:01:37;;;;;;;23.40;20.87;;;;;;;;;;5094499;28;20523;-61
2023/08/30 05:04:05;;;;;;;20.80;18.73;;;;;;;;;;5094418;28;20441;-62
2023/08/30 05:06:32;;;;;;;26.93;18.80;;;;;;;;;;5094256;28;20995;-64
2023/08/30 05:08:59;;;;;;;19.83;17.73;;;;;;;;;;5093813;28;20472;-62
2023/08/30 05:11:28;;;;;;;23.73;21.20;;;;;;;;;;5093780;28;20807;-61
2023/08/30 05:13:55;;;;;;;22.30;19.57;;;;;;;;;;5094470;28;20537;-61
2023/08/30 05:16:23;;;;;;;21.33;19.03;;;;;;;;;;5093753;28;20961;-62
2023/08/30 05:18:50;;;;;;;22.10;18.53;;;;;;;;;;5093908;28;20550;-62
2023/08/30 05:21:17;;;;;;;24.43;21.17;;;;;;;;;;5093870;28;20804;-62
2023/08/30 05:23:44;;;;;;;27.60;21.67;;;;;;;;;;5094559;28;20808;-62
2023/08/30 05:26:13;;;;;;;22.40;20.03;;;;;;;;;;5093705;28;20445;-62
2023/08/30 05:28:41;;;;;;;27.33;19.50;;;;;;;;;;5093482;28;20477;-62
2023/08/30 05:31:09;;;;;;;24.33;20.83;;;;;;;;;;5093649;28;20851;-62
2023/08/30 05:33:36;;;;;;;30.27;22.20;;;;;;;;;;5094065;28;20461;-62
2023/08/30 05:36:03;;;;;;;24.33;20.33;;;;;;;;;;5093567;28;20449;-62
2023/08/30 05:38:30;;;;;;;23.40;19.97;;;;;;;;;;5093017;28;20438;-63
2023/08/30 05:40:57;;;;;;;22.90;20.03;;;;;;;;;;5093402;28;20521;-62
2023/08/30 05:43:25;;;;;;;22.73;19.60;;;;;;;;;;5093237;28;20879;-63
2023/08/30 05:45:53;;;;;;;24.23;18.30;;;;;;;;;;5093734;28;20882;-62
2023/08/30 05:48:20;;;;;;;30.00;20.37;;;;;;;;;;5093671;28;20469;-63
2023/08/30 05:50:48;;;;;;;23.40;20.80;;;;;;;;;;5093556;28;20441;-63
2023/08/30 05:53:15;;;;;;;25.47;21.20;;;;;;;;;;5093305;28;20482;-62
2023/08/30 05:55:42;;;;;;;33.47;21.70;;;;;;;;;;5093673;28;20497;-62
2023/08/30 05:58:09;;;;;;;24.70;21.63;;;;;;;;;;5092963;28;20445;-62
2023/08/30 06:00:37;;;;;;;26.00;23.10;;;;;;;;;;5093255;28;20541;-62
2023/08/30 06:03:06;;;;;;;27.00;22.67;;;;;;;;;;5092970;28;20478;-63
2023/08/30 06:05:33;;;;;;;29.83;24.00;;;;;;;;;;5093463;28;20518;-62
2023/08/30 06:08:00;;;;;;;27.40;22.53;;;;;;;;;;5092724;28;20475;-62
2023/08/30 06:10:29;;;;;;;28.57;24.83;;;;;;;;;;5093510;28;20521;-62
2023/08/30 06:12:56;;;;;;;26.23;22.73;;;;;;;;;;5092994;28;20536;-62
2023/08/30 06:15:24;;;;;;;27.17;24.27;;;;;;;;;;5092814;28;20452;-62
2023/08/30 06:17:51;;;;;;;26.73;23.83;;;;;;;;;;5093108;28;20430;-63
2023/08/30 06:20:19;;;;;;;29.07;25.70;;;;;;;;;;5092844;28;20444;-63
2023/08/30 06:22:46;;;;;;;29.83;25.10;;;;;;;;;;5093016;28;20449;-61
2023/08/30 06:25:14;;;;;;;37.67;24.47;;;;;;;;;;5092921;28;20440;-62
2023/08/30 06:27:43;;;;;;;30.70;24.70;;;;;;;;;;5092386;28;20489;-62
2023/08/30 06:30:10;;;;;;;36.03;27.33;;;;;;;;;;5092439;28;20477;-63
2023/08/30 06:32:38;;;;;;;30.93;25.00;;;;;;;;;;5092594;28;20455;-61
2023/08/30 06:35:05;;;;;;;29.77;26.50;;;;;;;;;;5092589;28;20524;-62
2023/08/30 06:37:34;;;;;;;39.37;29.03;;;;;;;;;;5093009;28;20452;-62
2023/08/30 06:40:03;;;;;;;30.83;24.80;;;;;;;;;;5092602;28;20489;-62
2023/08/30 06:42:30;;;;;;;30.87;25.57;;;;;;;;;;5092509;28;20452;-62
2023/08/30 06:44:57;;;;;;;31.30;26.23;;;;;;;;;;5092908;28;20535;-62
2023/08/30 06:47:24;;;;;;;28.17;24.90;;;;;;;;;;5092642;28;20903;-71
2023/08/30 06:49:51;;;;;;;32.13;25.37;;;;;;;;;;5092566;28;21003;-68
2023/08/30 06:52:19;;;;;;;34.47;24.80;;;;;;;;;;5092879;28;20477;-62
2023/08/30 06:54:47;;;;;;;33.77;28.30;;;;;;;;;;5094208;28;20561;-62
2023/08/30 06:57:14;;;;;;;33.87;26.90;;;;;;;;;;5096016;28;20530;-62
2023/08/30 06:59:42;;;;;;;31.23;24.90;;;;;;;;;;5095616;28;20461;-62
2023/08/30 07:02:09;;;;;;;31.73;25.40;;;;;;;;;;5096283;28;20779;-62
2023/08/30 07:04:37;;;;;;;27.73;24.43;;;;;;;;;;5096279;28;20469;-62
2023/08/30 07:07:04;;;;;;;32.70;25.13;;;;;;;;;;5096549;28;20438;-61
2023/08/30 07:09:33;;;;;;;32.40;26.90;;;;;;;;;;5096229;28;20552;-62
2023/08/30 07:12:01;;;;;;;30.60;26.17;;;;;;;;;;5095943;28;20432;-61
2023/08/30 07:14:28;;;;;;;27.87;24.80;;;;;;;;;;5096251;28;20852;-63
2023/08/30 07:16:56;;;;;;;36.40;25.83;;;;;;;;;;5096947;28;20453;-63
2023/08/30 07:19:23;;;;;;;31.40;25.57;;;;;;;;;;5096185;28;20445;-61
2023/08/30 07:21:50;;;;;;;30.43;25.33;;;;;;;;;;5096044;28;20437;-62
2023/08/30 07:24:17;;;;;;;26.20;22.67;;;;;;;;;;5095877;28;20539;-62
2023/08/30 07:26:45;;;;;;;28.20;22.13;;;;;;;;;;5096171;28;20434;-60
2023/08/30 07:29:13;;;;;;;25.20;21.70;;;;;;;;;;5096111;28;20476;-61
2023/08/30 07:31:41;;;;;;;31.40;23.30;;;;;;;;;;5096340;28;20443;-61
2023/08/30 07:34:08;;;;;;;24.30;21.40;;;;;;;;;;5096146;28;20446;-61
2023/08/30 07:36:35;;;;;;;21.43;19.23;;;;;;;;;;5095701;28;20934;-61
2023/08/30 07:39:03;;;;;;;24.70;22.10;;;;;;;;;;5096254;28;20439;-61
2023/08/30 07:41:30;;;;;;;28.33;21.97;;;;;;;;;;5096373;28;20537;-61
2023/08/30 07:43:57;;;;;;;29.97;21.50;;;;;;;;;;5096100;28;20887;-61
2023/08/30 07:46:26;;;;;;;26.10;22.17;;;;;;;;;;5095924;28;20520;-61
2023/08/30 07:48:53;;;;;;;25.83;21.57;;;;;;;;;;5095876;28;20597;-61
2023/08/30 07:51:21;;;;;;;26.23;20.50;;;;;;;;;;5095939;28;20470;-62
2023/08/30 07:53:48;;;;;;;28.40;21.00;;;;;;;;;;5095552;28;20878;-61
2023/08/30 07:56:15;;;;;;;22.47;20.07;;;;;;;;;;5095858;28;20532;-61
2023/08/30 07:58:42;;;;;;;24.27;19.17;;;;;;;;;;5095909;28;20450;-61
2023/08/30 08:01:10;;;;;;;25.47;20.97;;;;;;;;;;5095746;28;20731;-61
2023/08/30 08:03:40;;;;;;;23.10;19.10;;;;;;;;;;5095609;28;20840;-61
2023/08/30 08:06:07;;;;;;;24.83;21.13;;;;;;;;;;5094574;28;20461;-62
2023/08/30 08:08:35;;;;;;;23.10;20.13;;;;;;;;;;5095383;28;20572;-62
2023/08/30 08:11:03;;;;;;;24.00;20.80;;;;;;;;;;5095448;28;20800;-62
2023/08/30 08:13:31;;;;;;;25.83;19.83;;;;;;;;;;5095223;28;20489;-62
2023/08/30 08:15:58;;;;;;;22.10;19.80;;;;;;;;;;5095606;28;20443;-62
2023/08/30 08:18:26;;;;;;;28.40;21.27;;;;;;;;;;5094699;28;20530;-62
2023/08/30 08:20:55;;;;;;;22.50;18.60;;;;;;;;;;5094983;28;20846;-62
2023/08/30 08:23:22;;;;;;;22.13;19.23;;;;;;;;;;5094655;28;20538;-62
2023/08/30 08:25:49;;;;;;;26.63;19.57;;;;;;;;;;5094641;28;20513;-62
2023/08/30 08:28:17;;;;;;;21.30;18.77;;;;;;;;;;5094877;28;20807;-62
2023/08/30 08:30:45;;;;;;;26.10;19.43;;;;;;;;;;5094545;28;20446;-62
2023/08/30 08:33:12;;;;;;;25.37;20.20;;;;;;;;;;5094911;28;20439;-61
2023/08/30 08:35:39;;;;;;;24.33;20.10;;;;;;;;;;5094806;28;20449;-62
2023/08/30 08:38:08;;;;;;;27.00;22.10;;;;;;;;;;5094750;28;20439;-62
2023/08/30 08:40:38;;;;;;;25.40;21.30;;;;;;;;;;5094424;28;20439;-62
2023/08/30 08:43:06;;;;;;;23.13;20.63;;;;;;;;;;5094862;28;20449;-61
2023/08/30 08:45:36;;;;;;;23.37;20.83;;;;;;;;;;5094824;28;20447;-62
2023/08/30 08:48:05;;;;;;;22.17;19.97;;;;;;;;;;5094671;28;20441;-62
2023/08/30 08:50:32;;;;;;;24.87;21.20;;;;;;;;;;5094630;28;20457;-62
2023/08/30 08:53:01;;;;;;;26.57;20.93;;;;;;;;;;5094345;28;20476;-62
2023/08/30 08:55:30;;;;;;;22.10;19.77;;;;;;;;;;5094174;28;20440;-63
2023/08/30 08:57:58;;;;;;;22.37;19.97;;;;;;;;;;5094980;28;20838;-62
2023/08/30 09:00:26;;;;;;;22.87;19.97;;;;;;;;;;5094174;28;20445;-62
2023/08/30 09:02:54;;;;;;;25.70;20.97;;;;;;;;;;5094588;28;20442;-62
2023/08/30 09:05:23;;;;;;;22.47;20.20;;;;;;;;;;5094377;28;20476;-61
2023/08/30 09:07:53;;;;;;;28.87;20.20;;;;;;;;;;5094347;28;20442;-61
2023/08/30 09:10:20;;;;;;;20.50;18.20;;;;;;;;;;5094021;28;20467;-61
2023/08/30 09:12:49;;;;;;;22.87;20.30;;;;;;;;;;5094269;28;20546;-61
2023/08/30 09:15:17;;;;;;;22.60;20.23;;;;;;;;;;5094404;28;20464;-61
2023/08/30 09:17:46;;;;;;;24.83;21.37;;;;;;;;;;5094261;28;20443;-62
2023/08/30 09:20:14;;;;;;;21.03;18.47;;;;;;;;;;5094090;28;20947;-62
2023/08/30 09:22:41;;;;;;;27.00;18.90;;;;;;;;;;5094078;28;20943;-62
2023/08/30 09:25:10;;;;;;;22.93;20.63;;;;;;;;;;5093936;28;20522;-62
2023/08/30 09:27:41;;;;;;;21.70;19.40;;;;;;;;;;5094034;28;20867;-61
2023/08/30 09:30:10;;;;;;;20.83;18.73;;;;;;;;;;5094292;28;20466;-61
2023/08/30 09:32:42;;;;;;;22.97;19.90;;;;;;;;;;5094524;28;20501;-61
2023/08/30 09:35:10;;;;;;;24.30;21.77;;;;;;;;;;5093749;28;20439;-61
2023/08/30 09:37:37;;;;;;;26.70;19.40;;;;;;;;;;5093871;28;20446;-62
2023/08/30 09:40:04;;;;;;;37.93;26.57;;;;;;;;;;5093522;28;20538;-62
2023/08/30 09:42:32;;;;;;;22.13;18.30;;;;;;;;;;5093669;28;20499;-62
2023/08/30 09:45:00;;;;;;;19.40;17.33;;;;;;;;;;5093558;28;20511;-63
2023/08/30 09:47:28;;;;;;;22.90;18.37;;;;;;;;;;5093836;28;20850;-62
2023/08/30 09:49:56;;;;;;;19.23;17.20;;;;;;;;;;5094270;28;20476;-62
2023/08/30 09:52:26;;;;;;;22.50;18.03;;;;;;;;;;5093822;28;20463;-62
2023/08/30 09:54:53;;;;;;;21.63;18.60;;;;;;;;;;5094053;28;20477;-62
2023/08/30 09:57:21;;;;;;;19.50;17.50;;;;;;;;;;5094138;28;20434;-62
2023/08/30 09:59:48;;;;;;;18.17;16.00;;;;;;;;;;5093223;28;20446;-62
2023/08/30 10:02:17;;;;;;;16.73;15.13;;;;;;;;;;5093637;28;20534;-61
2023/08/30 10:04:45;;;;;;;18.33;16.53;;;;;;;;;;5093793;28;20441;-63
2023/08/30 10:07:13;;;;;;;18.47;14.87;;;;;;;;;;5093463;28;20939;-65
2023/08/30 10:09:40;;;;;;;63.90;52.17;;;;;;;;;;5091871;28;20478;-63
2023/08/30 10:12:08;;;;;;;25.20;22.17;;;;;;;;;;5091681;28;20834;-63
2023/08/30 10:14:35;;;;;;;17.53;15.73;;;;;;;;;;5092424;28;20438;-66
2023/08/30 10:17:03;;;;;;;14.67;13.17;;;;;;;;;;5092494;28;20571;-63
2023/08/30 10:19:30;;;;;;;16.97;14.80;;;;;;;;;;5092569;28;20449;-60
2023/08/30 10:22:03;;;;;;;15.70;12.30;;;;;;;;;;5092324;28;20447;-60
2023/08/30 10:24:31;;;;;;;12.57;11.37;;;;;;;;;;5092408;28;20778;-59
2023/08/30 10:26:59;;;;;;;15.40;12.53;;;;;;;;;;5092898;28;20855;-57
2023/08/30 10:29:27;;;;;;;12.70;11.40;;;;;;;;;;5070835;28;20517;-54
2023/08/30 10:31:54;;;;;;;13.90;11.47;;;;;;;;;;5072512;28;20527;-58
2023/08/30 10:34:21;;;;;;;12.70;10.20;;;;;;;;;;5072499;28;20471;-58
2023/08/30 10:36:58;;;;;;;11.07;10.03;;;;;;;;;;5072527;28;20441;-58
2023/08/30 10:39:29;;;;;;;10.87;9.70;;;;;;;;;;5078596;28;20947;-57
2023/08/30 10:41:57;;;;;;;11.40;9.50;;;;;;;;;;5092788;28;20958;-57
2023/08/30 10:44:24;;;;;;;12.90;9.23;;;;;;;;;;5092560;28;20439;-57
2023/08/30 10:46:54;;;;;;;14.87;13.27;;;;;;;;;;5092714;28;20522;-54
2023/08/30 10:49:21;;;;;;;9.20;8.03;;;;;;;;;;5092089;28;20833;-60
2023/08/30 10:51:57;;;;;;;9.17;8.23;;;;;;;;;;5093118;28;20803;-61
2023/08/30 10:54:24;;;;;;;9.20;7.30;;;;;;;;;;5093091;28;20564;-62
2023/08/30 10:56:59;;;;;;;9.07;8.07;;;;;;;;;;5092388;28;20465;-61
2023/08/30 10:59:26;;;;;;;12.63;8.50;;;;;;;;;;5091912;28;20513;-62
2023/08/30 11:01:55;;;;;;;11.50;8.90;;;;;;;;;;5092346;28;20514;-61
2023/08/30 11:04:23;;;;;;;12.87;10.40;;;;;;;;;;5092053;28;20950;-61
2023/08/30 11:06:50;;;;;;;11.13;9.97;;;;;;;;;;5092657;28;20534;-60
2023/08/30 11:09:18;;;;;;;15.67;12.47;;;;;;;;;;5091279;28;20467;-60
2023/08/30 11:11:46;;;;;;;14.50;12.83;;;;;;;;;;5092215;28;20438;-61
2023/08/30 11:14:15;;;;;;;15.90;13.20;;;;;;;;;;5092414;28;20442;-61
2023/08/30 11:16:42;;;;;;;16.03;14.23;;;;;;;;;;5092483;28;20439;-62
2023/08/30 11:19:11;;;;;;;22.10;13.97;;;;;;;;;;5091906;28;20974;-62
2023/08/30 11:21:38;;;;;;;21.10;13.80;;;;;;;;;;5092257;28;20439;-63
2023/08/30 11:24:06;;;;;;;18.50;14.47;;;;;;;;;;5092347;28;20530;-62
2023/08/30 11:26:33;;;;;;;14.57;13.17;;;;;;;;;;5092845;28;20798;-62
2023/08/30 11:29:05;;;;;;;14.93;12.57;;;;;;;;;;5092088;28;20795;-62
2023/08/30 11:31:34;;;;;;;14.63;13.10;;;;;;;;;;5092584;28;20514;-62
2023/08/30 11:34:01;;;;;;;12.50;11.13;;;;;;;;;;5091957;28;20522;-62
2023/08/30 11:36:29;;;;;;;14.03;10.87;;;;;;;;;;5092128;28;20449;-62
2023/08/30 11:38:56;;;;;;;11.07;9.80;;;;;;;;;;5092187;28;20445;-62
2023/08/30 11:41:24;;;;;;;11.07;9.90;;;;;;;;;;5094657;28;20516;-62
2023/08/30 11:43:51;;;;;;;15.53;10.40;;;;;;;;;;5096354;28;20439;-63
2023/08/30 11:46:18;;;;;;;10.60;9.50;;;;;;;;;;5095751;28;20537;-62
2023/08/30 11:48:47;;;;;;;11.90;10.70;;;;;;;;;;5095712;28;20444;-62
2023/08/30 11:51:15;;;;;;;11.83;10.60;;;;;;;;;;5095373;28;20478;-62
2023/08/30 11:53:42;;;;;;;11.50;9.07;;;;;;;;;;5095656;28;20465;-62
2023/08/30 11:56:09;;;;;;;11.20;10.10;;;;;;;;;;5095139;28;20496;-62
2023/08/30 11:58:37;;;;;;;11.10;9.97;;;;;;;;;;5095528;28;20472;-62
2023/08/30 12:01:05;;;;;;;12.37;11.27;;;;;;;;;;5095529;28;20529;-62
2023/08/30 12:03:33;;;;;;;11.97;10.90;;;;;;;;;;5095511;28;20520;-62
2023/08/30 12:06:01;;;;;;;13.67;12.30;;;;;;;;;;5095544;28;20526;-62
2023/08/30 12:08:29;;;;;;;12.87;11.60;;;;;;;;;;5095392;28;20466;-62
2023/08/30 12:10:58;;;;;;;11.60;10.40;;;;;;;;;;5094689;28;21013;-65
2023/08/30 12:13:25;;;;;;;13.50;10.27;;;;;;;;;;5095301;28;20437;-61
2023/08/30 12:15:52;;;;;;;11.13;10.03;;;;;;;;;;5094863;28;20515;-62
2023/08/30 12:18:23;;;;;;;12.63;11.40;;;;;;;;;;5093339;28;20453;-62
2023/08/30 12:20:54;;;;;;;17.93;11.03;;;;;;;;;;5094745;28;20441;-62
2023/08/30 12:23:23;;;;;;;13.03;11.10;;;;;;;;;;5094447;28;20477;-63
2023/08/30 12:26:04;;;;;;;12.67;11.57;;;;;;;;;;5094877;28;20520;-64
2023/08/30 12:28:32;;;;;;;15.00;11.27;;;;;;;;;;5094606;28;20437;-62
2023/08/30 12:30:59;;;;;;;12.70;11.60;;;;;;;;;;5094149;28;21101;-63
2023/08/30 12:33:27;;;;;;;15.20;13.03;;;;;;;;;;5094475;28;20465;-63
2023/08/30 12:35:54;;;;;;;15.53;12.83;;;;;;;;;;5094576;28;20453;-61
2023/08/30 12:38:23;;;;;;;13.30;11.90;;;;;;;;;;5094173;28;21008;-62
2023/08/30 12:40:51;;;;;;;14.20;12.80;;;;;;;;;;5094427;28;20807;-63
2023/08/30 12:43:19;;;;;;;13.40;12.10;;;;;;;;;;5094588;28;20449;-64
2023/08/30 12:45:47;;;;;;;12.60;11.40;;;;;;;;;;5094842;28;20450;-62
2023/08/30 12:48:15;;;;;;;12.73;11.53;;;;;;;;;;5094528;28;20524;-62
2023/08/30 12:50:43;;;;;;;12.97;11.70;;;;;;;;;;5094856;28;20555;-61
2023/08/30 12:53:10;;;;;;;12.93;11.83;;;;;;;;;;5093712;28;20491;-63
2023/08/30 12:55:39;;;;;;;13.20;12.00;;;;;;;;;;5093973;28;20533;-63
2023/08/30 12:58:06;;;;;;;13.10;11.80;;;;;;;;;;5094256;28;20439;-63
2023/08/30 13:00:34;;;;;;;13.97;11.70;;;;;;;;;;5093775;28;21002;-63
2023/08/30 13:03:01;;;;;;;13.33;11.93;;;;;;;;;;5094112;28;20515;-62
2023/08/30 13:05:28;;;;;;;11.70;10.50;;;;;;;;;;5093910;28;20520;-62
2023/08/30 13:07:55;;;;;;;13.20;11.93;;;;;;;;;;5093912;28;20435;-63
2023/08/30 13:10:23;;;;;;;12.87;11.60;;;;;;;;;;5093574;28;20561;-62
2023/08/30 13:12:51;;;;;;;15.53;11.63;;;;;;;;;;5093833;28;20969;-63
2023/08/30 13:15:18;;;;;;;12.70;11.60;;;;;;;;;;5093952;28;20878;-62
2023/08/30 13:17:46;;;;;;;14.90;13.60;;;;;;;;;;5093402;28;20514;-62
2023/08/30 13:20:13;;;;;;;14.47;12.43;;;;;;;;;;5093797;28;20489;-62
2023/08/30 13:22:40;;;;;;;12.73;11.60;;;;;;;;;;5094215;28;20438;-62
2023/08/30 13:25:08;;;;;;;12.87;11.70;;;;;;;;;;5093922;28;20446;-63
2023/08/30 13:27:35;;;;;;;13.67;12.40;;;;;;;;;;5093384;28;20443;-62
2023/08/30 13:30:04;;;;;;;12.53;11.53;;;;;;;;;;5093462;28;20568;-62
2023/08/30 13:32:33;;;;;;;13.20;12.00;;;;;;;;;;5093623;28;20835;-62
2023/08/30 13:35:00;;;;;;;12.53;11.47;;;;;;;;;;5093450;28;20444;-62
2023/08/30 13:37:27;;;;;;;12.67;11.47;;;;;;;;;;5093600;28;20791;-62
2023/08/30 13:39:54;;;;;;;13.23;12.13;;;;;;;;;;5093336;28;20434;-62
2023/08/30 13:42:22;;;;;;;11.73;10.70;;;;;;;;;;5092944;28;20557;-61
2023/08/30 13:44:52;;;;;;;11.53;10.33;;;;;;;;;;5093389;28;20471;-62
2023/08/30 13:47:20;;;;;;;12.97;11.67;;;;;;;;;;5093009;28;20443;-62
2023/08/30 13:49:48;;;;;;;12.70;11.53;;;;;;;;;;5093326;28;20435;-62
2023/08/30 13:52:15;;;;;;;12.73;11.63;;;;;;;;;;5093154;28;20791;-62
2023/08/30 13:54:43;;;;;;;13.07;11.90;;;;;;;;;;5092881;28;20491;-61
2023/08/30 13:57:10;;;;;;;15.13;13.70;;;;;;;;;;5092923;28;20447;-62
2023/08/30 13:59:37;;;;;;;13.97;12.77;;;;;;;;;;5092131;28;20966;-61
2023/08/30 14:02:05;;;;;;;15.70;13.93;;;;;;;;;;5092968;28;20526;-61
2023/08/30 14:04:36;;;;;;;15.27;13.87;;;;;;;;;;5092334;28;20530;-61
2023/08/30 14:07:03;;;;;;;15.50;13.90;;;;;;;;;;5093021;28;20838;-61
2023/08/30 14:09:30;;;;;;;15.90;14.40;;;;;;;;;;5092612;28;20496;-62
2023/08/30 14:11:57;;;;;;;15.33;13.87;;;;;;;;;;5092706;28;20564;-61
2023/08/30 14:14:25;;;;;;;17.10;15.43;;;;;;;;;;5092620;28;20552;-61
2023/08/30 14:16:52;;;;;;;16.00;14.20;;;;;;;;;;5092876;28;20485;-62
2023/08/30 14:19:19;;;;;;;15.90;14.40;;;;;;;;;;5091829;28;20457;-62
2023/08/30 14:21:48;;;;;;;17.90;16.20;;;;;;;;;;5092541;28;20437;-61
2023/08/30 14:24:15;;;;;;;19.00;17.03;;;;;;;;;;5092491;28;21016;-61